Time;durP1;ratioP1;P1;durP2;ratioP2;P2;SDS_P1;SDS_P2;PMS_P1;PMS_P2;Temp;Humidity;BMP_temperature;BMP_pressure;BME280_temperature;BME280_humidity;BME280_pressure;Samples;Min_cycle;Max_cycle;Signal;HPM_P1;HPM_P2
2023/09/30 00:00:36;;;;;;;6.75;1.98;;;;;;;16.59;71.51;101463.47;7395987;19;20010;-66
2023/09/30 00:03:11;;;;;;;7.20;2.20;;;;;;;16.54;71.10;101483.94;7398052;19;20014;-66
2023/09/30 00:05:40;;;;;;;4.68;1.60;;;;;;;16.54;71.57;101484.84;7395914;19;20033;-67
2023/09/30 00:08:09;;;;;;;4.72;1.42;;;;;;;16.54;71.47;101483.94;7396329;19;20066;-67
2023/09/30 00:10:37;;;;;;;5.25;1.58;;;;;;;16.53;71.16;101484.84;7395918;19;20010;-66
2023/09/30 00:13:06;;;;;;;7.30;1.70;;;;;;;16.39;71.03;101496.81;7395737;19;20354;-66
2023/09/30 00:15:44;;;;;;;9.38;2.53;;;;;;;16.43;71.30;101497.56;7396543;19;20010;-66
2023/09/30 00:18:19;;;;;;;6.45;1.85;;;;;;;16.34;70.82;101504.06;7396565;19;20031;-66
2023/09/30 00:20:47;;;;;;;7.53;2.33;;;;;;;16.33;70.69;101494.38;7396909;19;20007;-66
2023/09/30 00:23:16;;;;;;;8.82;2.55;;;;;;;16.21;70.48;101543.28;7397134;19;20021;-67
2023/09/30 00:25:44;;;;;;;6.80;2.22;;;;;;;16.09;71.08;101515.44;7397242;19;20082;-65
2023/09/30 00:28:14;;;;;;;6.95;2.17;;;;;;;16.01;71.59;101533.38;7394897;19;20371;-65
2023/09/30 00:30:47;;;;;;;8.63;2.58;;;;;;;16.00;71.64;101515.75;7396736;19;20514;-66
2023/09/30 00:33:15;;;;;;;5.45;2.10;;;;;;;15.95;71.43;101515.03;7395826;19;20018;-66
2023/09/30 00:35:44;;;;;;;10.52;2.55;;;;;;;15.86;71.92;101526.78;7395137;19;20006;-66
2023/09/30 00:38:14;;;;;;;6.60;2.10;;;;;;;15.85;72.00;101527.69;7395046;19;20015;-65
2023/09/30 00:40:49;;;;;;;9.63;3.03;;;;;;;15.80;72.40;101530.44;7396799;19;20015;-66
2023/09/30 00:43:21;;;;;;;7.85;2.70;;;;;;;15.78;71.99;101534.03;7397051;19;20078;-66
2023/09/30 00:45:59;;;;;;;8.95;2.55;;;;;;;15.74;72.34;101530.63;7395407;19;20086;-66
2023/09/30 00:48:28;;;;;;;8.70;2.65;;;;;;;15.69;72.39;101543.13;7395115;19;20027;-67
2023/09/30 00:50:57;;;;;;;6.28;2.67;;;;;;;15.66;72.45;101545.00;7396476;19;20031;-65
2023/09/30 00:53:26;;;;;;;6.70;2.35;;;;;;;15.66;72.10;101534.41;7394658;19;20077;-66
2023/09/30 00:55:56;;;;;;;7.90;2.40;;;;;;;15.60;71.89;101552.19;7396335;19;20359;-65
2023/09/30 00:58:31;;;;;;;11.25;2.58;;;;;;;15.53;71.23;101541.84;7394895;19;20496;-66
2023/09/30 01:01:02;;;;;;;10.95;2.75;;;;;;;15.51;70.99;101556.91;7395724;19;20023;-66
2023/09/30 01:03:31;;;;;;;8.52;2.70;;;;;;;15.48;70.75;101550.81;7396598;19;20252;-67
2023/09/30 01:05:59;;;;;;;8.10;2.28;;;;;;;15.45;70.80;101556.16;7396000;19;20015;-67
2023/09/30 01:08:28;;;;;;;10.05;2.20;;;;;;;15.47;71.08;101559.63;7392343;19;20014;-67
2023/09/30 01:10:57;;;;;;;6.65;2.58;;;;;;;15.40;71.10;101563.38;7395869;19;20010;-67
2023/09/30 01:13:26;;;;;;;10.88;2.88;;;;;;;15.38;71.08;101566.97;7394358;19;20010;-68
2023/09/30 01:15:55;;;;;;;9.45;2.47;;;;;;;15.34;71.08;101570.63;7394960;19;20014;-67
2023/09/30 01:18:26;;;;;;;9.95;2.28;;;;;;;15.31;71.16;101576.84;7394575;19;20094;-67
2023/09/30 01:20:56;;;;;;;9.63;2.45;;;;;;;15.28;70.77;101572.53;7395281;19;20410;-68
2023/09/30 01:23:28;;;;;;;12.88;4.80;;;;;;;15.21;70.92;101576.25;7395166;19;20369;-68
2023/09/30 01:25:56;;;;;;;10.20;2.40;;;;;;;15.18;70.78;101572.81;7395610;19;20025;-67
2023/09/30 01:28:26;;;;;;;16.88;3.70;;;;;;;15.10;71.02;101581.84;7393779;19;20508;-67
2023/09/30 01:30:55;;;;;;;10.05;2.90;;;;;;;15.07;71.06;101581.91;7395318;19;20011;-67
2023/09/30 01:33:23;;;;;;;10.68;3.38;;;;;;;14.99;71.07;101584.75;7393554;19;20078;-67
2023/09/30 01:35:52;;;;;;;10.25;2.90;;;;;;;14.96;71.31;101587.50;7395190;19;20014;-68
2023/09/30 01:38:20;;;;;;;13.45;2.92;;;;;;;14.95;71.51;101595.44;7392859;19;20037;-67
2023/09/30 01:40:52;;;;;;;9.55;2.55;;;;;;;14.89;71.44;101603.56;7392914;19;20003;-67
2023/09/30 01:43:20;;;;;;;9.80;2.90;;;;;;;14.86;71.72;101601.88;7394610;19;20477;-67
2023/09/30 01:45:49;;;;;;;10.88;2.92;;;;;;;14.78;72.38;101609.09;7393092;19;20015;-68
2023/09/30 01:48:17;;;;;;;10.20;3.15;;;;;;;14.75;72.47;101611.84;7393711;19;20011;-67
2023/09/30 01:50:46;;;;;;;14.05;3.15;;;;;;;14.69;72.84;101610.19;7394491;19;20461;-67
2023/09/30 01:53:14;;;;;;;10.55;2.72;;;;;;;14.63;73.35;101611.22;7392762;19;20027;-67
2023/09/30 01:55:50;;;;;;;11.43;3.10;;;;;;;14.59;73.14;101613.94;7394530;19;20102;-67
2023/09/30 01:58:27;;;;;;;15.35;2.83;;;;;;;14.48;74.63;101607.16;7393611;19;20021;-68
2023/09/30 02:00:56;;;;;;;13.30;3.25;;;;;;;14.44;74.68;101621.31;7394705;19;20026;-68
2023/09/30 02:03:24;;;;;;;13.48;2.92;;;;;;;14.37;75.37;101629.44;7394090;19;20006;-67
2023/09/30 02:05:53;;;;;;;8.73;2.97;;;;;;;14.33;75.00;101615.44;7394388;19;20074;-67
2023/09/30 02:08:22;;;;;;;9.82;2.83;;;;;;;14.31;75.16;101626.03;7392586;19;20481;-68
2023/09/30 02:10:50;;;;;;;13.77;4.05;;;;;;;14.27;75.59;101626.16;7394282;19;20024;-68
2023/09/30 02:13:22;;;;;;;16.67;3.70;;;;;;;14.25;75.80;101627.94;7392676;19;20015;-68
2023/09/30 02:15:47;;;;;;;8.90;3.33;;;;;;;14.24;75.78;101626.22;7393156;19;20488;-68
2023/09/30 02:18:16;;;;;;;11.95;3.38;;;;;;;14.22;76.14;101625.41;7393038;19;20017;-68
2023/09/30 02:20:44;;;;;;;14.68;3.83;;;;;;;14.20;75.76;101630.69;7400440;19;20073;-68
2023/09/30 02:23:15;;;;;;;8.90;2.80;;;;;;;14.18;75.51;101633.38;7400987;19;20011;-69
2023/09/30 02:25:44;;;;;;;11.02;3.30;;;;;;;14.19;75.74;101634.22;7401586;19;20369;-67
2023/09/30 02:28:13;;;;;;;16.00;3.33;;;;;;;14.16;75.71;101635.16;7399299;19;20372;-67
2023/09/30 02:30:44;;;;;;;12.35;2.97;;;;;;;14.16;76.06;101637.81;7401159;19;20422;-67
2023/09/30 02:33:12;;;;;;;10.57;3.33;;;;;;;14.11;75.93;101642.31;7399596;19;20082;-67
2023/09/30 02:35:41;;;;;;;10.65;2.75;;;;;;;14.06;75.98;101643.34;7397952;19;20091;-67
2023/09/30 02:38:11;;;;;;;12.20;3.05;;;;;;;14.01;76.29;101646.06;7397792;19;20018;-67
2023/09/30 02:40:40;;;;;;;11.52;2.53;;;;;;;13.95;76.75;101656.75;7400472;19;20021;-67
2023/09/30 02:43:08;;;;;;;12.77;3.38;;;;;;;13.91;77.08;101660.34;7400486;19;20074;-67
2023/09/30 02:45:37;;;;;;;11.70;3.75;;;;;;;13.85;77.59;101661.38;7398108;19;20083;-67
2023/09/30 02:48:08;;;;;;;9.60;3.28;;;;;;;13.79;79.03;101659.72;7398759;19;20081;-67
2023/09/30 02:50:37;;;;;;;11.63;3.28;;;;;;;13.77;78.65;101660.63;7400248;19;20082;-67
2023/09/30 02:53:06;;;;;;;10.23;3.05;;;;;;;13.72;78.62;101668.63;7398897;19;20010;-67
2023/09/30 02:55:34;;;;;;;7.80;2.85;;;;;;;13.67;79.24;101676.66;7399886;19;20480;-67
2023/09/30 02:58:02;;;;;;;14.35;3.25;;;;;;;13.64;79.35;101678.47;7397659;19;20014;-67
2023/09/30 03:00:32;;;;;;;11.90;3.13;;;;;;;13.59;79.77;101667.16;7400131;19;20027;-67
2023/09/30 03:03:04;;;;;;;13.95;3.42;;;;;;;13.56;80.09;101676.00;7399970;19;20021;-68
2023/09/30 03:05:35;;;;;;;14.23;3.22;;;;;;;13.51;80.37;101678.72;7397059;19;20491;-68
2023/09/30 03:08:04;;;;;;;12.73;3.45;;;;;;;13.45;80.54;101678.81;7398588;19;20015;-68
2023/09/30 03:10:32;;;;;;;11.38;4.18;;;;;;;13.42;80.51;101688.56;7397058;19;20018;-67
2023/09/30 03:13:01;;;;;;;14.85;3.60;;;;;;;13.39;80.71;101676.31;7396826;19;20375;-67
2023/09/30 03:15:31;;;;;;;13.93;3.53;;;;;;;13.34;81.11;101696.56;7397354;19;20011;-68
2023/09/30 03:17:59;;;;;;;11.80;2.78;;;;;;;13.31;81.46;101701.91;7396757;19;20031;-67
2023/09/30 03:20:28;;;;;;;12.02;3.08;;;;;;;13.26;81.45;101704.63;7399169;19;20106;-67
2023/09/30 03:22:59;;;;;;;11.18;3.30;;;;;;;13.22;81.54;101708.22;7399027;19;20081;-68
2023/09/30 03:25:30;;;;;;;12.60;2.97;;;;;;;13.17;81.60;101710.06;7400731;19;20338;-67
2023/09/30 03:27:59;;;;;;;11.50;3.35;;;;;;;13.11;81.99;101718.94;7397037;19;20392;-67
2023/09/30 03:30:29;;;;;;;9.50;3.08;;;;;;;13.07;82.40;101714.63;7398863;19;20082;-68
2023/09/30 03:32:58;;;;;;;11.63;2.95;;;;;;;13.03;82.55;101713.78;7397316;19;20472;-66
2023/09/30 03:35:26;;;;;;;12.77;3.83;;;;;;;13.00;82.62;101715.59;7399061;19;20010;-67
2023/09/30 03:37:55;;;;;;;10.20;3.10;;;;;;;12.95;82.79;101720.94;7397969;19;20020;-67
2023/09/30 03:40:28;;;;;;;12.48;3.22;;;;;;;12.91;83.55;101718.38;7398646;19;20025;-67
2023/09/30 03:42:58;;;;;;;9.63;2.97;;;;;;;12.86;83.49;101719.34;7396488;19;20390;-67
2023/09/30 03:45:27;;;;;;;14.45;3.72;;;;;;;12.82;84.04;101717.63;7399349;19;20014;-67
2023/09/30 03:47:56;;;;;;;12.82;4.05;;;;;;;12.81;84.06;101728.19;7397068;19;20469;-67
2023/09/30 03:50:26;;;;;;;15.77;3.85;;;;;;;12.78;84.04;101729.09;7397036;19;20011;-67
2023/09/30 03:53:04;;;;;;;8.48;2.75;;;;;;;12.76;84.08;101722.13;7398346;19;20018;-67
2023/09/30 03:55:36;;;;;;;13.65;3.10;;;;;;;12.71;84.78;101725.72;7398011;19;20545;-68
2023/09/30 03:58:05;;;;;;;11.75;3.72;;;;;;;12.68;85.73;101730.16;7396793;19;20536;-68
2023/09/30 04:00:35;;;;;;;11.40;4.50;;;;;;;12.62;85.77;101722.34;7396022;19;20029;-68
2023/09/30 04:03:03;;;;;;;10.23;3.22;;;;;;;12.58;86.65;101723.28;7395983;19;20021;-67
2023/09/30 04:05:36;;;;;;;14.23;3.53;;;;;;;12.54;86.59;101725.94;7397594;19;20424;-67
2023/09/30 04:08:05;;;;;;;16.92;3.58;;;;;;;12.52;87.27;101732.13;7397089;19;20018;-68
2023/09/30 04:10:36;;;;;;;14.85;3.53;;;;;;;12.51;86.62;101733.00;7397331;19;20086;-67
2023/09/30 04:13:05;;;;;;;14.13;3.75;;;;;;;12.50;87.28;101732.16;7397283;19;20078;-66
2023/09/30 04:15:34;;;;;;;13.20;3.53;;;;;;;12.49;87.59;101740.94;7397587;19;20011;-67
2023/09/30 04:18:05;;;;;;;14.38;3.97;;;;;;;12.47;88.84;101740.09;7395725;19;20014;-67
2023/09/30 04:20:34;;;;;;;9.55;2.90;;;;;;;12.47;88.11;101745.38;7397079;19;20347;-67
2023/09/30 04:23:02;;;;;;;13.23;3.15;;;;;;;12.47;87.70;101749.75;7397182;19;20018;-68
2023/09/30 04:25:31;;;;;;;14.15;2.95;;;;;;;12.47;87.99;101750.63;7397007;19;20029;-67
2023/09/30 04:28:03;;;;;;;18.58;3.83;;;;;;;12.47;87.97;101763.78;7396139;19;20031;-67
2023/09/30 04:30:32;;;;;;;13.02;3.53;;;;;;;12.47;87.47;101757.63;7396813;19;20015;-68
2023/09/30 04:33:02;;;;;;;17.42;3.40;;;;;;;12.46;87.59;101753.25;7396413;19;20018;-67
2023/09/30 04:35:30;;;;;;;15.30;3.47;;;;;;;12.45;88.48;101757.66;7396685;19;20014;-68
2023/09/30 04:38:01;;;;;;;13.30;3.60;;;;;;;12.42;88.09;101757.69;7396197;19;20018;-67
2023/09/30 04:40:30;;;;;;;9.77;3.45;;;;;;;12.41;87.97;101745.44;7396576;19;20011;-68
2023/09/30 04:42:59;;;;;;;14.55;4.38;;;;;;;12.39;87.69;101740.19;7392099;19;20017;-68
2023/09/30 04:45:30;;;;;;;13.27;3.53;;;;;;;12.40;87.71;101754.22;7395053;19;20017;-68
2023/09/30 04:47:58;;;;;;;14.40;3.22;;;;;;;12.37;87.72;101751.63;7395589;19;20469;-67
2023/09/30 04:50:27;;;;;;;17.52;3.40;;;;;;;12.35;87.90;101754.28;7396254;19;20070;-67
2023/09/30 04:52:57;;;;;;;15.38;3.70;;;;;;;12.34;87.71;101760.41;7395726;19;20410;-67
2023/09/30 04:55:26;;;;;;;15.38;3.53;;;;;;;12.31;88.14;101770.09;7394435;19;20010;-67
2023/09/30 04:57:55;;;;;;;19.85;4.03;;;;;;;12.28;88.01;101776.28;7395159;19;20010;-66
2023/09/30 05:00:25;;;;;;;11.77;3.25;;;;;;;12.26;88.55;101772.81;7395580;19;20513;-66
2023/09/30 05:02:58;;;;;;;16.27;4.03;;;;;;;12.22;89.07;101782.50;7396849;19;20021;-67
2023/09/30 05:05:28;;;;;;;;;;;;;;;12.20;90.19;101775.53;7397452;19;20074;-67
2023/09/30 05:07:57;;;;;;;16.05;3.25;;;;;;;12.17;88.70;101771.16;7394933;19;19937;-68
2023/09/30 05:10:26;;;;;;;16.42;3.70;;;;;;;12.14;88.88;101754.53;7395717;19;20011;-68
2023/09/30 05:12:54;;;;;;;11.38;3.30;;;;;;;12.14;88.39;101757.19;7394993;19;20477;-67
2023/09/30 05:15:25;;;;;;;12.40;4.18;;;;;;;12.14;88.44;101763.28;7395644;19;20069;-67
2023/09/30 05:17:56;;;;;;;17.15;3.72;;;;;;;12.14;88.84;101771.19;7393394;19;20015;-68
2023/09/30 05:20:24;;;;;;;16.38;3.97;;;;;;;12.13;89.08;101776.47;7395742;19;20078;-67
2023/09/30 05:22:53;;;;;;;12.85;3.58;;;;;;;12.13;88.77;101780.00;7395496;19;20090;-67
2023/09/30 05:25:25;;;;;;;16.40;3.70;;;;;;;12.11;88.90;101780.91;7395288;19;20015;-68
2023/09/30 05:27:54;;;;;;;12.77;2.95;;;;;;;12.10;88.68;101779.16;7394718;19;20019;-67
2023/09/30 05:30:23;;;;;;;13.18;3.65;;;;;;;12.10;88.39;101792.31;7394835;19;20496;-66
2023/09/30 05:32:52;;;;;;;12.38;4.20;;;;;;;12.09;88.72;101790.56;7393353;19;20014;-66
2023/09/30 05:35:23;;;;;;;15.20;4.97;;;;;;;12.08;88.69;101801.97;7395982;19;20014;-66
2023/09/30 05:37:53;;;;;;;14.52;3.78;;;;;;;12.08;89.19;101799.34;7393838;19;20041;-67
2023/09/30 05:40:26;;;;;;;12.18;4.25;;;;;;;12.06;88.90;101807.25;7394943;19;20014;-66
2023/09/30 05:42:57;;;;;;;14.32;3.88;;;;;;;12.05;89.58;101813.38;7394594;19;20495;-66
2023/09/30 05:45:26;;;;;;;14.73;4.40;;;;;;;12.04;89.47;101811.63;7395447;19;20029;-66
2023/09/30 05:47:56;;;;;;;13.25;3.83;;;;;;;12.04;89.29;101820.41;7393928;19;20010;-65
2023/09/30 05:50:27;;;;;;;12.50;3.75;;;;;;;12.07;89.20;101824.78;7394606;19;20029;-66
2023/09/30 05:52:57;;;;;;;14.98;4.13;;;;;;;12.10;89.69;101824.72;7395368;19;20074;-65
2023/09/30 05:55:26;;;;;;;12.15;3.80;;;;;;;12.12;89.23;101819.44;7399930;19;20011;-66
2023/09/30 05:57:54;;;;;;;9.38;4.00;;;;;;;12.14;89.55;101822.94;7400692;19;20036;-66
2023/09/30 06:00:23;;;;;;;12.30;4.00;;;;;;;12.18;89.29;101822.91;7401632;19;20006;-66
2023/09/30 06:02:52;;;;;;;17.83;4.45;;;;;;;12.19;89.36;101829.88;7398996;19;20078;-66
2023/09/30 06:05:22;;;;;;;14.82;4.80;;;;;;;12.21;89.54;101833.38;7401975;19;20082;-65
2023/09/30 06:07:54;;;;;;;15.90;4.03;;;;;;;12.22;89.71;101829.88;7401181;19;20014;-67
2023/09/30 06:10:22;;;;;;;15.63;4.75;;;;;;;12.23;89.73;101833.34;7399064;19;20341;-67
2023/09/30 06:12:54;;;;;;;16.63;4.88;;;;;;;12.26;90.15;101849.13;7401405;19;20014;-65
2023/09/30 06:15:25;;;;;;;11.60;3.97;;;;;;;12.29;89.89;101845.59;7398531;19;20485;-66
2023/09/30 06:17:55;;;;;;;13.80;4.78;;;;;;;12.30;89.85;101842.06;7399093;19;20026;-66
2023/09/30 06:20:26;;;;;;;16.25;4.95;;;;;;;12.31;89.62;101854.31;7401423;19;20074;-65
2023/09/30 06:22:57;;;;;;;17.98;4.97;;;;;;;12.33;89.40;101858.69;7398368;19;20495;-66
2023/09/30 06:25:27;;;;;;;16.83;4.25;;;;;;;12.37;89.31;101865.66;7400888;19;20070;-65
2023/09/30 06:27:57;;;;;;;17.10;5.20;;;;;;;12.41;89.28;101862.97;7399881;19;20022;-65
2023/09/30 06:30:29;;;;;;;14.98;4.65;;;;;;;12.43;89.29;101867.34;7400563;19;20014;-66
2023/09/30 06:32:58;;;;;;;19.35;5.43;;;;;;;12.48;89.12;101865.53;7401083;19;20039;-67
2023/09/30 06:35:26;;;;;;;16.55;4.30;;;;;;;12.51;88.94;101869.88;7398024;19;20007;-66
2023/09/30 06:37:57;;;;;;;11.73;4.05;;;;;;;12.53;89.10;101874.22;7397726;19;20037;-66
2023/09/30 06:40:26;;;;;;;15.00;4.47;;;;;;;12.56;88.97;101878.59;7400222;19;20007;-66
2023/09/30 06:42:54;;;;;;;14.32;4.80;;;;;;;12.59;88.84;101882.97;7400002;19;20410;-66
2023/09/30 06:45:23;;;;;;;15.50;4.82;;;;;;;12.62;88.94;101890.81;7400051;19;20401;-66
2023/09/30 06:47:53;;;;;;;9.15;3.83;;;;;;;12.64;88.89;101882.00;7398857;19;20010;-66
2023/09/30 06:50:21;;;;;;;17.73;4.70;;;;;;;12.69;88.79;101893.34;7397787;19;20370;-66
2023/09/30 06:52:50;;;;;;;13.23;5.45;;;;;;;12.73;88.81;101888.94;7399816;19;20074;-68
2023/09/30 06:55:34;;;;;;;17.17;4.38;;;;;;;12.81;88.47;101902.00;7396947;19;20485;-67
2023/09/30 06:58:10;;;;;;;14.27;4.05;;;;;;;12.88;88.16;101901.91;7398972;19;20119;-69
2023/09/30 07:00:39;;;;;;;16.83;5.05;;;;;;;12.97;87.87;101902.69;7399764;19;20017;-67
2023/09/30 07:03:09;;;;;;;15.90;4.60;;;;;;;13.07;87.65;101901.66;7399223;19;20540;-68
2023/09/30 07:05:39;;;;;;;13.38;4.35;;;;;;;13.15;87.19;101910.31;7396969;19;20043;-68
2023/09/30 07:08:07;;;;;;;13.63;3.70;;;;;;;13.24;86.81;101905.81;7398136;19;20032;-68
2023/09/30 07:10:39;;;;;;;11.60;4.13;;;;;;;13.31;86.37;101899.59;7399462;19;20022;-68
2023/09/30 07:13:08;;;;;;;19.10;4.55;;;;;;;13.38;85.73;101903.03;7399057;19;20010;-67
2023/09/30 07:15:36;;;;;;;13.55;3.40;;;;;;;13.41;85.47;101903.84;7396873;19;20025;-69
2023/09/30 07:18:05;;;;;;;14.30;3.50;;;;;;;13.47;85.31;101911.66;7396634;19;20078;-68
2023/09/30 07:20:35;;;;;;;17.30;3.92;;;;;;;13.52;84.92;101903.66;7399563;19;20014;-68
2023/09/30 07:23:04;;;;;;;14.32;3.78;;;;;;;13.60;84.61;101924.66;7398443;19;20011;-69
2023/09/30 07:25:34;;;;;;;9.10;2.85;;;;;;;13.67;84.09;101915.75;7397995;19;20073;-67
2023/09/30 07:28:11;;;;;;;21.15;4.45;;;;;;;13.73;83.76;101923.56;7396762;19;20495;-68
2023/09/30 07:30:39;;;;;;;14.85;2.90;;;;;;;13.78;83.47;101918.22;7399132;19;20329;-69
2023/09/30 07:33:08;;;;;;;13.52;3.75;;;;;;;13.83;83.40;101925.16;7396633;19;20011;-68
2023/09/30 07:35:38;;;;;;;14.05;3.42;;;;;;;13.89;82.92;101920.66;7396513;19;20033;-68
2023/09/30 07:38:07;;;;;;;12.98;3.50;;;;;;;13.94;82.64;101914.44;7397090;19;20014;-69
2023/09/30 07:40:35;;;;;;;18.85;3.88;;;;;;;13.99;82.44;101917.84;7395534;19;20018;-68
2023/09/30 07:43:06;;;;;;;10.43;2.75;;;;;;;14.04;82.23;101920.44;7395818;19;20082;-68
2023/09/30 07:45:35;;;;;;;12.25;3.90;;;;;;;14.09;81.91;101925.59;7398354;19;20026;-69
2023/09/30 07:48:04;;;;;;;11.85;3.25;;;;;;;14.13;81.93;101928.16;7397621;19;20018;-68
2023/09/30 07:50:33;;;;;;;15.75;3.30;;;;;;;14.17;81.45;101939.53;7397680;19;20428;-68
2023/09/30 07:53:02;;;;;;;15.57;3.17;;;;;;;14.18;81.08;101933.38;7397713;19;20014;-68
2023/09/30 07:55:37;;;;;;;15.15;2.97;;;;;;;14.24;81.09;101943.81;7395650;19;20070;-69
2023/09/30 07:58:15;;;;;;;15.38;3.10;;;;;;;14.28;80.69;101934.06;7396901;19;20011;-69
2023/09/30 08:00:45;;;;;;;14.00;2.95;;;;;;;14.32;80.83;101952.47;7397963;19;20150;-72
2023/09/30 08:03:13;;;;;;;14.50;3.38;;;;;;;14.36;80.13;101952.44;7397194;19;20033;-69
2023/09/30 08:05:42;;;;;;;14.93;3.15;;;;;;;14.38;79.85;101953.25;7397341;19;20007;-69
2023/09/30 08:08:11;;;;;;;15.10;3.13;;;;;;;14.40;79.73;101954.09;7395477;19;20366;-68
2023/09/30 08:10:39;;;;;;;11.48;3.35;;;;;;;14.42;78.99;101962.84;7396776;19;20355;-68
2023/09/30 08:13:10;;;;;;;16.92;3.30;;;;;;;14.43;79.21;101961.94;7397189;19;20082;-67
2023/09/30 08:15:38;;;;;;;15.38;2.92;;;;;;;14.47;79.24;101972.44;7394225;19;20530;-69
2023/09/30 08:18:08;;;;;;;12.27;2.97;;;;;;;14.50;79.15;101977.66;7395055;19;20022;-68
2023/09/30 08:20:36;;;;;;;16.33;3.45;;;;;;;14.49;78.84;101960.09;7394311;19;20010;-68
2023/09/30 08:23:05;;;;;;;15.85;3.08;;;;;;;14.56;78.64;101981.06;7396583;19;20014;-68
2023/09/30 08:25:34;;;;;;;11.57;2.92;;;;;;;14.53;78.51;101963.50;7396622;19;20022;-68
2023/09/30 08:28:02;;;;;;;16.90;3.05;;;;;;;14.55;78.31;101961.72;7395187;19;20481;-68
2023/09/30 08:30:35;;;;;;;11.90;2.70;;;;;;;14.57;78.28;101966.97;7394236;19;20014;-68
2023/09/30 08:33:07;;;;;;;16.80;3.17;;;;;;;14.56;78.44;101973.16;7395699;19;20366;-69
2023/09/30 08:35:38;;;;;;;12.93;3.17;;;;;;;14.57;78.31;101969.63;7395279;19;20041;-68
2023/09/30 08:38:06;;;;;;;12.98;3.03;;;;;;;14.56;78.58;101970.50;7395515;19;20031;-69
2023/09/30 08:40:35;;;;;;;12.65;3.30;;;;;;;14.56;78.46;101966.13;7395881;19;20034;-68
2023/09/30 08:43:06;;;;;;;13.18;3.53;;;;;;;14.57;78.78;101956.41;7395545;19;20473;-68
2023/09/30 08:45:42;;;;;;;11.00;3.65;;;;;;;14.57;78.69;101965.22;7395997;19;20028;-68
2023/09/30 08:48:10;;;;;;;13.07;2.80;;;;;;;14.57;78.70;101962.59;7395309;19;20085;-68
2023/09/30 08:50:42;;;;;;;13.35;3.55;;;;;;;14.58;78.76;101968.72;7395403;19;20006;-69
2023/09/30 08:53:13;;;;;;;14.40;3.63;;;;;;;14.58;78.95;101966.94;7395183;19;20409;-69
2023/09/30 08:55:44;;;;;;;13.10;2.85;;;;;;;14.60;78.93;101967.78;7393820;19;20011;-69
2023/09/30 08:58:14;;;;;;;14.48;3.92;;;;;;;14.62;79.12;101966.00;7394290;19;20020;-67
2023/09/30 09:00:45;;;;;;;14.20;3.42;;;;;;;14.66;78.84;101967.72;7395147;19;20079;-68
2023/09/30 09:03:14;;;;;;;15.68;3.17;;;;;;;14.70;78.27;101959.72;7395479;19;20397;-68
2023/09/30 09:05:42;;;;;;;15.73;4.18;;;;;;;14.73;78.44;101957.88;7395003;19;20505;-68
2023/09/30 09:08:11;;;;;;;16.60;3.22;;;;;;;14.79;77.73;101956.91;7394525;19;20011;-68
2023/09/30 09:10:56;;;;;;;9.45;2.80;;;;;;;14.85;77.47;101962.06;7395567;19;20062;-68
2023/09/30 09:13:25;;;;;;;14.27;3.50;;;;;;;14.91;77.66;101967.22;7394578;19;20412;-68
2023/09/30 09:16:13;;;;;;;12.70;2.90;;;;;;;15.00;77.47;101958.25;7393618;19;20070;-67
2023/09/30 09:18:41;;;;;;;11.77;2.78;;;;;;;15.07;76.77;101958.97;7392657;19;20023;-68
2023/09/30 09:21:14;;;;;;;12.07;3.17;;;;;;;15.14;75.29;101969.38;7394518;19;20469;-66
2023/09/30 09:23:43;;;;;;;15.45;2.60;;;;;;;15.20;75.30;101972.78;7394438;19;20501;-68
2023/09/30 09:26:13;;;;;;;12.63;2.75;;;;;;;15.26;74.94;101973.53;7393237;19;20086;-68
2023/09/30 09:28:42;;;;;;;13.32;2.92;;;;;;;15.32;75.06;101967.25;7391631;19;20013;-68
2023/09/30 09:31:27;;;;;;;14.52;2.80;;;;;;;15.38;73.75;101972.41;7394509;19;20011;-68
2023/09/30 09:33:56;;;;;;;10.27;2.53;;;;;;;15.44;74.15;101966.97;7394044;19;20405;-68
2023/09/30 09:36:43;;;;;;;10.30;2.22;;;;;;;15.48;73.99;101962.50;7392513;19;20334;-67
2023/09/30 09:39:13;;;;;;;8.90;2.55;;;;;;;15.58;73.10;101957.84;7392761;19;20027;-68
2023/09/30 09:41:53;;;;;;;10.38;3.03;;;;;;;15.64;72.15;101968.28;7394946;19;20014;-68
2023/09/30 09:44:23;;;;;;;6.10;2.03;;;;;;;15.69;72.37;101969.03;7394327;19;20531;-68
2023/09/30 09:46:54;;;;;;;8.50;2.53;;;;;;;15.74;72.32;101968.94;7394949;19;20029;-68
2023/09/30 09:49:23;;;;;;;5.18;1.95;;;;;;;15.82;71.17;101966.13;7393747;19;20524;-68
2023/09/30 09:51:54;;;;;;;11.18;3.45;;;;;;;15.90;70.03;101972.13;7394592;19;20011;-68
2023/09/30 09:54:25;;;;;;;10.48;2.80;;;;;;;16.00;70.21;101981.56;7394379;19;20023;-68
2023/09/30 09:56:56;;;;;;;9.68;2.95;;;;;;;16.07;69.78;101977.84;7394381;19;20419;-68
2023/09/30 09:59:26;;;;;;;13.05;3.38;;;;;;;16.11;69.87;101979.53;7394294;19;20011;-68
2023/09/30 10:01:58;;;;;;;9.73;2.38;;;;;;;16.20;68.83;101972.25;7394760;19;20127;-69
2023/09/30 10:04:26;;;;;;;10.07;4.25;;;;;;;16.28;69.11;101970.28;7391997;19;20299;-68
2023/09/30 10:06:57;;;;;;;10.80;4.28;;;;;;;16.36;68.27;101970.94;7391883;19;20018;-68
2023/09/30 10:09:27;;;;;;;6.05;2.00;;;;;;;16.45;67.49;101962.75;7393063;19;20073;-68
2023/09/30 10:12:01;;;;;;;7.43;1.70;;;;;;;16.49;66.62;101968.84;7393929;19;20027;-67
2023/09/30 10:14:35;;;;;;;12.18;2.40;;;;;;;16.56;65.71;101969.53;7393266;19;20074;-69
2023/09/30 10:17:07;;;;;;;14.60;2.45;;;;;;;16.61;65.07;101962.34;7391913;19;20418;-69
2023/09/30 10:19:35;;;;;;;10.02;2.08;;;;;;;16.72;66.26;101962.91;7392234;19;20010;-67
2023/09/30 10:22:25;;;;;;;13.90;2.45;;;;;;;16.81;64.23;101966.19;7391733;19;20007;-68
2023/09/30 10:24:55;;;;;;;12.73;2.60;;;;;;;16.88;65.52;101966.00;7393327;19;20011;-68
2023/09/30 10:27:36;;;;;;;11.35;2.55;;;;;;;16.94;64.91;101971.13;7392669;19;20542;-69
2023/09/30 10:30:13;;;;;;;10.55;2.35;;;;;;;17.02;65.06;101975.34;7392811;19;20013;-68
2023/09/30 10:33:14;;;;;;;14.15;2.67;;;;;;;17.09;63.27;101959.22;7393369;19;20011;-69
2023/09/30 10:35:46;;;;;;;8.75;2.05;;;;;;;17.19;63.74;101964.25;7391350;19;20040;-68
2023/09/30 10:38:45;;;;;;;8.07;1.88;;;;;;;17.27;62.30;101983.44;7391511;19;20473;-67
2023/09/30 10:41:33;;;;;;;7.50;2.17;;;;;;;17.32;63.44;101970.91;7396294;19;20033;-68
2023/09/30 10:44:38;;;;;;;9.75;2.50;;;;;;;17.39;63.17;101964.50;7400599;19;20090;-69
2023/09/30 10:47:38;;;;;;;8.10;2.00;;;;;;;17.47;61.58;101969.56;7401387;19;20010;-68
2023/09/30 10:50:47;;;;;;;11.32;2.90;;;;;;;17.56;61.75;101971.06;7399514;19;20002;-68
2023/09/30 10:53:16;;;;;;;16.85;3.05;;;;;;;17.64;62.58;101965.50;7397034;19;20066;-69
2023/09/30 10:55:46;;;;;;;9.80;2.70;;;;;;;17.68;61.50;101972.44;7396608;19;20022;-67
2023/09/30 10:58:15;;;;;;;11.02;2.20;;;;;;;17.70;60.41;101958.22;7398097;19;20031;-68
2023/09/30 11:00:55;;;;;;;8.90;2.10;;;;;;;17.73;58.68;101968.75;7398925;19;20074;-69
2023/09/30 11:03:25;;;;;;;6.82;1.73;;;;;;;17.78;60.18;101962.41;7399784;19;20352;-69
2023/09/30 11:05:56;;;;;;;7.32;2.40;;;;;;;17.79;59.51;101970.31;7400281;19;20037;-68
2023/09/30 11:08:26;;;;;;;8.88;2.00;;;;;;;17.81;59.82;101967.63;7397735;19;20018;-68
2023/09/30 11:10:55;;;;;;;10.98;2.70;;;;;;;17.80;58.26;101971.22;7398890;19;20010;-68
2023/09/30 11:13:23;;;;;;;11.23;3.15;;;;;;;17.83;58.71;101965.78;7400218;19;20018;-69
2023/09/30 11:16:02;;;;;;;10.57;2.95;;;;;;;17.83;57.17;101966.66;7397389;19;20003;-68
2023/09/30 11:18:38;;;;;;;10.60;3.25;;;;;;;17.83;57.56;101966.66;7396553;19;20006;-68
2023/09/30 11:21:12;;;;;;;15.15;4.03;;;;;;;17.88;56.89;101974.47;7398531;19;20434;-67
2023/09/30 11:23:43;;;;;;;10.48;2.30;;;;;;;17.88;56.86;101974.47;7399062;19;20007;-68
2023/09/30 11:26:13;;;;;;;9.63;2.30;;;;;;;17.90;58.16;101967.31;7398182;19;20006;-68
2023/09/30 11:28:43;;;;;;;8.00;2.38;;;;;;;17.95;58.28;101964.56;7396269;19;20426;-69
2023/09/30 11:31:14;;;;;;;10.55;2.33;;;;;;;18.03;57.70;101958.06;7399265;19;20010;-68
2023/09/30 11:33:53;;;;;;;10.20;2.00;;;;;;;18.13;55.15;101939.16;7399069;19;20019;-69
2023/09/30 11:36:24;;;;;;;10.43;2.15;;;;;;;18.21;56.19;101935.31;7397021;19;20074;-69